createdAt,value
2022-09-28T00:00:08.861Z,9.21
2022-09-28T00:01:08.855Z,10.14
2022-09-28T00:02:08.968Z,10.76
2022-09-28T00:03:08.945Z,9.83
2022-09-28T00:04:08.817Z,11.59
2022-09-28T00:05:08.808Z,11.29
2022-09-28T00:06:08.806Z,10.14
2022-09-28T00:07:08.782Z,11.39
2022-09-28T00:08:08.773Z,10.77
2022-09-28T00:09:08.760Z,11.49
2022-09-28T00:10:08.751Z,12.01
2022-09-28T00:11:08.767Z,12.12
2022-09-28T00:12:08.727Z,13.46
2022-09-28T00:13:08.716Z,12.12
2022-09-28T00:14:08.708Z,12.43
2022-09-28T00:15:08.698Z,12.12
2022-09-28T00:16:08.743Z,11.81
2022-09-28T00:17:08.671Z,11.91
2022-09-28T00:18:08.662Z,11.50
2022-09-28T00:19:08.649Z,13.67
2022-09-28T00:20:08.639Z,12.54
2022-09-28T00:21:08.626Z,12.85
2022-09-28T00:22:08.618Z,14.09
2022-09-28T00:23:08.606Z,13.88
2022-09-28T00:24:08.598Z,12.12
2022-09-28T00:25:08.584Z,11.81
2022-09-28T00:26:08.572Z,11.81
2022-09-28T00:27:08.585Z,13.16
2022-09-28T00:28:08.550Z,13.36
2022-09-28T00:29:08.542Z,12.64
2022-09-28T00:30:08.530Z,13.06
2022-09-28T00:31:08.598Z,11.91
2022-09-28T00:32:08.505Z,12.54
2022-09-28T00:33:08.494Z,12.33
2022-09-28T00:34:08.484Z,12.54
2022-09-28T00:35:08.470Z,12.95
2022-09-28T00:36:08.463Z,12.02
2022-09-28T00:37:08.448Z,13.06
2022-09-28T00:38:08.444Z,15.64
2022-09-28T00:39:08.428Z,13.88
2022-09-28T00:40:08.419Z,14.09
2022-09-28T00:41:08.405Z,16.06
2022-09-28T00:42:08.397Z,13.78
2022-09-28T00:43:08.407Z,13.27
2022-09-28T00:44:08.371Z,12.96
2022-09-28T00:45:08.360Z,12.44
2022-09-28T00:46:08.409Z,12.12
2022-09-28T00:47:08.341Z,11.60
2022-09-28T00:48:08.330Z,10.05
2022-09-28T00:49:08.317Z,9.74
2022-09-28T00:50:08.306Z,10.56
2022-09-28T00:51:08.294Z,10.87
2022-09-28T00:52:08.289Z,12.85
2022-09-28T00:53:08.273Z,11.71
2022-09-28T00:54:08.263Z,11.19
2022-09-28T00:55:08.249Z,12.85
2022-09-28T00:56:08.240Z,12.54
2022-09-28T00:57:08.230Z,12.12
2022-09-28T00:58:08.218Z,11.81
2022-09-28T00:59:08.231Z,13.78
2022-09-28T01:00:08.195Z,12.02
2022-09-28T01:01:08.220Z,14.61
2022-09-28T01:02:08.293Z,13.99
2022-09-28T01:03:08.161Z,12.85
2022-09-28T01:04:08.160Z,13.17
2022-09-28T01:05:08.141Z,14.51
2022-09-28T01:06:08.133Z,13.47
2022-09-28T01:07:08.118Z,13.47
2022-09-28T01:08:08.108Z,14.72
2022-09-28T01:09:08.100Z,15.14
2022-09-28T01:10:08.093Z,15.55
2022-09-28T01:11:08.075Z,13.48
2022-09-28T01:12:08.065Z,14.72
2022-09-28T01:13:08.053Z,13.68
2022-09-28T01:14:08.042Z,13.06
2022-09-28T01:15:08.055Z,13.47
2022-09-28T01:16:08.238Z,14.72
2022-09-28T01:17:08.008Z,14.20
2022-09-28T01:18:07.999Z,14.62
2022-09-28T01:19:07.987Z,14.51
2022-09-28T01:20:07.977Z,13.28
2022-09-28T01:21:07.963Z,15.45
2022-09-28T01:22:07.955Z,14.20
2022-09-28T01:23:07.941Z,15.45
2022-09-28T01:24:07.934Z,14.93
2022-09-28T01:25:07.923Z,13.79
2022-09-28T01:26:07.913Z,12.55
2022-09-28T01:27:07.905Z,11.72
2022-09-28T01:28:07.888Z,11.92
2022-09-28T01:29:07.877Z,12.13
2022-09-28T01:30:07.868Z,12.13
2022-09-28T01:31:07.924Z,11.92
2022-09-28T01:32:07.845Z,13.99
2022-09-28T01:33:07.833Z,11.82
2022-09-28T01:34:07.825Z,10.78
2022-09-28T01:35:07.811Z,11.71
2022-09-28T01:36:07.804Z,11.82
2022-09-28T01:37:07.792Z,11.82
2022-09-28T01:38:07.784Z,11.61
2022-09-28T01:39:07.767Z,13.89
2022-09-28T01:40:07.758Z,11.92
2022-09-28T01:41:07.751Z,12.76
2022-09-28T01:42:07.738Z,13.37
2022-09-28T01:43:07.726Z,12.65
2022-09-28T01:44:07.715Z,11.93
2022-09-28T01:45:07.703Z,13.28
2022-09-28T01:46:07.734Z,12.96
2022-09-28T01:47:07.705Z,12.96
2022-09-28T01:48:07.670Z,13.68
2022-09-28T01:49:07.660Z,13.68
2022-09-28T01:50:07.648Z,13.79
2022-09-28T01:51:07.637Z,13.39
2022-09-28T01:52:07.628Z,13.39
2022-09-28T01:53:07.614Z,14.11
2022-09-28T01:54:07.609Z,13.90
2022-09-28T01:55:07.593Z,13.59
2022-09-28T01:56:07.583Z,12.97
2022-09-28T01:57:07.572Z,12.34
2022-09-28T01:58:07.562Z,14.20
2022-09-28T01:59:07.549Z,13.48
2022-09-28T02:00:07.539Z,12.76
2022-09-28T02:01:07.588Z,12.55
2022-09-28T02:02:07.629Z,12.65
2022-09-28T02:03:07.526Z,13.48
2022-09-28T02:04:07.495Z,12.45
2022-09-28T02:05:07.485Z,11.72
2022-09-28T02:06:07.475Z,10.99
2022-09-28T02:07:07.461Z,10.68
2022-09-28T02:08:07.451Z,10.68
2022-09-28T02:09:07.439Z,10.47
2022-09-28T02:10:07.433Z,10.26
2022-09-28T02:11:07.419Z,10.05
2022-09-28T02:12:07.409Z,9.64
2022-09-28T02:13:07.395Z,9.42
2022-09-28T02:14:07.393Z,9.01
2022-09-28T02:15:07.376Z,8.81
2022-09-28T02:16:07.415Z,8.91
2022-09-28T02:17:07.351Z,8.70
2022-09-28T02:18:07.357Z,8.08
2022-09-28T02:19:07.355Z,7.56
2022-09-28T02:20:07.321Z,7.35
2022-09-28T02:21:07.307Z,7.24
2022-09-28T02:22:07.301Z,6.93
2022-09-28T02:23:07.285Z,6.83
2022-09-28T02:24:07.280Z,6.52
2022-09-28T02:25:07.264Z,6.31
2022-09-28T02:26:07.259Z,6.21
2022-09-28T02:27:07.243Z,6.10
2022-09-28T02:28:07.234Z,6.00
2022-09-28T02:29:07.221Z,5.79
2022-09-28T02:30:07.216Z,5.58
2022-09-28T02:31:07.247Z,5.38
2022-09-28T02:32:07.208Z,5.27
2022-09-28T02:33:07.176Z,4.96
2022-09-28T02:34:07.167Z,4.86
2022-09-28T02:35:07.176Z,4.65
2022-09-28T02:36:07.144Z,4.65
2022-09-28T02:37:07.133Z,4.55
2022-09-28T02:38:07.120Z,4.44
2022-09-28T02:39:07.108Z,4.34
2022-09-28T02:40:07.099Z,4.24
2022-09-28T02:41:07.094Z,4.13
2022-09-28T02:42:07.078Z,4.03
2022-09-28T02:43:07.066Z,3.82
2022-09-28T02:44:07.058Z,3.72
2022-09-28T02:45:07.043Z,3.61
2022-09-28T02:46:07.091Z,3.51
2022-09-28T02:47:07.023Z,3.51
2022-09-28T02:48:07.013Z,3.41
2022-09-28T02:49:20.899Z,3.31
2022-09-28T02:50:08.013Z,3.31
2022-09-28T02:51:07.001Z,3.20
2022-09-28T02:52:06.969Z,3.00
2022-09-28T02:53:06.956Z,2.89
2022-09-28T02:54:06.952Z,2.69
2022-09-28T02:55:06.940Z,2.79
2022-09-28T02:56:06.925Z,2.69
2022-09-28T02:57:06.918Z,2.58
2022-09-28T02:58:06.911Z,2.37
2022-09-28T02:59:06.904Z,2.48
2022-09-28T03:00:06.888Z,2.37
2022-09-28T03:01:06.931Z,2.27
2022-09-28T03:02:06.939Z,2.27
2022-09-28T03:03:06.851Z,2.06
2022-09-28T03:04:06.843Z,1.96
2022-09-28T03:05:06.829Z,1.96
2022-09-28T03:06:06.821Z,1.86
2022-09-28T03:07:06.828Z,1.54
2022-09-28T03:08:06.797Z,1.44
2022-09-28T03:09:06.784Z,1.44
2022-09-28T03:10:06.783Z,1.34
2022-09-28T03:11:06.760Z,1.34
2022-09-28T03:12:06.750Z,1.14
2022-09-28T03:13:06.738Z,1.24
2022-09-28T03:14:06.729Z,1.03
2022-09-28T03:15:06.718Z,1.03
2022-09-28T03:16:06.765Z,1.03
2022-09-28T03:17:06.694Z,0.72
2022-09-28T03:18:06.689Z,0.82
2022-09-28T03:19:06.672Z,0.72
2022-09-28T03:20:06.662Z,0.72
2022-09-28T03:21:06.649Z,0.62
2022-09-28T03:22:06.641Z,0.41
2022-09-28T03:23:23.858Z,0.41
2022-09-28T03:24:07.642Z,0.41
2022-09-28T03:25:06.612Z,0.31
2022-09-28T03:26:06.596Z,0.20
2022-09-28T03:27:06.584Z,0.20
2022-09-28T03:28:06.573Z,0.10
2022-09-28T03:29:06.561Z,0.00
2022-09-28T03:30:06.555Z,0.00
2022-09-28T03:31:06.590Z,0.00
2022-09-28T03:32:06.543Z,0.00
2022-09-28T03:33:06.522Z,0.00
2022-09-28T03:34:06.510Z,0.00
2022-09-28T03:35:06.494Z,0.00
2022-09-28T03:36:06.487Z,0.00
2022-09-28T03:37:06.472Z,0.00
2022-09-28T03:38:06.469Z,0.00
2022-09-28T03:39:06.475Z,0.00
2022-09-28T03:40:06.439Z,0.00
2022-09-28T03:41:06.426Z,0.00
2022-09-28T03:42:06.426Z,0.00
2022-09-28T03:43:06.406Z,0.00
2022-09-28T03:44:06.396Z,0.00
2022-09-28T03:45:06.385Z,0.00
2022-09-28T03:46:06.446Z,0.00
2022-09-28T03:47:06.361Z,0.00
2022-09-28T03:48:06.365Z,0.00
2022-09-28T03:49:06.349Z,0.00
2022-09-28T03:50:06.328Z,0.00
2022-09-28T03:51:06.317Z,0.00
2022-09-28T03:52:06.312Z,0.00
2022-09-28T03:53:06.298Z,0.00
2022-09-28T03:54:06.284Z,0.00
2022-09-28T03:55:06.295Z,0.00
2022-09-28T03:56:06.261Z,0.00
2022-09-28T03:57:06.251Z,0.00
2022-09-28T03:58:06.242Z,0.00
2022-09-28T03:59:06.231Z,0.00
2022-09-28T04:00:06.228Z,0.00
2022-09-28T04:01:06.286Z,0.00
2022-09-28T04:02:06.289Z,0.00
2022-09-28T04:03:06.223Z,0.00
2022-09-28T04:04:06.174Z,0.00
2022-09-28T04:05:06.164Z,0.00
2022-09-28T04:06:06.153Z,0.00
2022-09-28T04:07:06.142Z,0.00
2022-09-28T04:08:06.133Z,0.00
2022-09-28T04:09:06.117Z,0.00
2022-09-28T04:10:06.106Z,0.00
2022-09-28T04:11:06.117Z,0.00
2022-09-28T04:12:06.087Z,0.00
2022-09-28T04:13:06.071Z,0.00
2022-09-28T04:14:06.064Z,0.00
2022-09-28T04:15:06.050Z,0.00
2022-09-28T04:16:06.083Z,0.00
2022-09-28T04:17:06.028Z,0.00
2022-09-28T04:18:06.020Z,0.00
2022-09-28T04:19:06.002Z,0.00
2022-09-28T04:20:05.995Z,0.00
2022-09-28T04:21:05.983Z,0.00
2022-09-28T04:22:05.976Z,0.00
2022-09-28T04:23:05.963Z,0.00
2022-09-28T04:24:05.963Z,0.00
2022-09-28T04:25:05.938Z,0.00
2022-09-28T04:26:05.924Z,0.00
2022-09-28T04:27:05.941Z,0.00
2022-09-28T04:28:05.925Z,0.00
2022-09-28T04:29:06.946Z,0.00
2022-09-28T04:30:05.898Z,0.00
2022-09-28T04:31:05.874Z,0.00
2022-09-28T04:32:05.946Z,0.00
2022-09-28T04:33:05.853Z,0.00
2022-09-28T04:34:05.863Z,0.00
2022-09-28T04:35:05.828Z,0.00
2022-09-28T04:36:05.826Z,0.00
2022-09-28T04:37:05.809Z,0.00
2022-09-28T04:38:05.796Z,0.00
2022-09-28T04:39:05.785Z,0.00
2022-09-28T04:40:05.769Z,0.00
2022-09-28T04:41:05.761Z,0.00
2022-09-28T04:42:05.749Z,0.00
2022-09-28T04:43:05.763Z,0.00
2022-09-28T04:44:05.726Z,0.00
2022-09-28T04:45:05.715Z,0.00
2022-09-28T04:46:05.834Z,0.00
2022-09-28T04:47:05.695Z,0.00
2022-09-28T04:48:05.687Z,0.00
2022-09-28T04:49:05.758Z,0.00
2022-09-28T04:50:05.679Z,0.00
2022-09-28T04:51:05.652Z,0.00
2022-09-28T04:52:05.639Z,0.00
2022-09-28T04:53:05.627Z,0.00
2022-09-28T04:54:05.613Z,0.00
2022-09-28T04:55:05.603Z,0.00
2022-09-28T04:56:05.590Z,0.00
2022-09-28T04:57:05.580Z,0.00
2022-09-28T04:58:05.568Z,0.00
2022-09-28T04:59:05.582Z,0.00
2022-09-28T05:00:05.551Z,0.00
2022-09-28T05:01:05.613Z,0.00
2022-09-28T05:02:05.583Z,0.00
2022-09-28T05:03:05.513Z,0.00
2022-09-28T05:04:05.501Z,0.00
2022-09-28T05:05:05.493Z,0.00
2022-09-28T05:06:05.483Z,0.00
2022-09-28T05:07:05.468Z,0.00
2022-09-28T05:08:05.456Z,0.00
2022-09-28T05:09:05.445Z,0.00
2022-09-28T05:10:05.433Z,0.00
2022-09-28T05:11:05.422Z,0.00
2022-09-28T05:12:05.518Z,0.00
2022-09-28T05:13:05.399Z,0.00
2022-09-28T05:14:05.388Z,0.00
2022-09-28T05:15:05.408Z,0.00
2022-09-28T05:16:05.810Z,0.00
2022-09-28T05:17:05.357Z,0.00
2022-09-28T05:18:05.346Z,0.00
2022-09-28T05:19:05.352Z,0.00
2022-09-28T05:20:05.322Z,0.00
2022-09-28T05:21:05.312Z,0.00
2022-09-28T05:22:05.303Z,0.00
2022-09-28T05:23:05.290Z,0.00
2022-09-28T05:24:05.275Z,0.00
2022-09-28T05:25:05.267Z,0.00
2022-09-28T05:26:05.255Z,0.00
2022-09-28T05:27:05.242Z,0.00
2022-09-28T05:28:05.231Z,0.00
2022-09-28T05:29:05.246Z,0.00
2022-09-28T05:30:05.206Z,0.00
2022-09-28T05:31:05.221Z,0.00
2022-09-28T05:32:05.298Z,0.00
2022-09-28T05:33:05.180Z,0.00
2022-09-28T05:34:05.165Z,0.00
2022-09-28T05:35:05.151Z,0.00
2022-09-28T05:36:05.145Z,0.00
2022-09-28T05:37:05.135Z,0.00
2022-09-28T05:38:05.121Z,0.00
2022-09-28T05:39:05.115Z,0.00
2022-09-28T05:40:05.094Z,0.00
2022-09-28T05:41:06.752Z,0.00
2022-09-28T05:42:05.119Z,0.00
2022-09-28T05:43:05.079Z,0.00
2022-09-28T05:44:05.080Z,0.00
2022-09-28T05:45:05.044Z,0.00
2022-09-28T05:46:05.164Z,0.00
2022-09-28T05:47:05.044Z,0.00
2022-09-28T05:48:05.004Z,0.00
2022-09-28T05:49:05.087Z,0.00
2022-09-28T05:50:05.023Z,0.00
2022-09-28T05:51:05.063Z,0.00
2022-09-28T05:52:05.028Z,0.00
2022-09-28T05:53:05.064Z,0.00
2022-09-28T05:54:06.317Z,0.00
2022-09-28T05:55:05.089Z,0.00
2022-09-28T05:56:05.046Z,0.00
2022-09-28T05:57:04.924Z,0.00
2022-09-28T05:58:04.895Z,0.00
2022-09-28T05:59:04.887Z,0.00
2022-09-28T06:00:04.900Z,0.00
2022-09-28T06:01:04.937Z,0.00
2022-09-28T06:02:04.937Z,0.00
2022-09-28T06:03:08.704Z,0.00
2022-09-28T06:04:04.830Z,0.00
2022-09-28T06:05:04.820Z,0.00
2022-09-28T06:06:04.808Z,0.00
2022-09-28T06:07:04.800Z,0.00
2022-09-28T06:08:04.790Z,0.00
2022-09-28T06:09:04.779Z,0.00
2022-09-28T06:10:04.763Z,0.00
2022-09-28T06:11:04.756Z,0.00
2022-09-28T06:12:04.744Z,0.00
2022-09-28T06:13:04.736Z,0.00
2022-09-28T06:14:04.889Z,0.00
2022-09-28T06:15:04.741Z,0.00
2022-09-28T06:16:04.703Z,0.00
2022-09-28T06:17:04.742Z,0.00
2022-09-28T06:18:04.683Z,0.00
2022-09-28T06:19:04.690Z,0.00
2022-09-28T06:20:04.653Z,0.00
2022-09-28T06:21:04.646Z,0.00
2022-09-28T06:22:04.635Z,0.00
2022-09-28T06:23:04.624Z,0.00
2022-09-28T06:24:04.607Z,0.00
2022-09-28T06:25:04.656Z,0.00
2022-09-28T06:26:04.590Z,0.00
2022-09-28T06:27:04.578Z,0.00
2022-09-28T06:28:04.601Z,0.00
2022-09-28T06:29:04.585Z,0.00
2022-09-28T06:30:04.545Z,0.00
2022-09-28T06:31:04.610Z,0.00
2022-09-28T06:32:04.521Z,0.00
2022-09-28T06:33:04.513Z,0.00
2022-09-28T06:34:04.503Z,0.00
2022-09-28T06:35:04.514Z,0.00
2022-09-28T06:36:04.478Z,0.00
2022-09-28T06:37:04.471Z,0.00
2022-09-28T06:38:04.458Z,0.00
2022-09-28T06:39:04.448Z,0.00
2022-09-28T06:40:04.442Z,0.00
2022-09-28T06:41:05.072Z,0.00
2022-09-28T06:42:04.444Z,0.00
2022-09-28T06:43:04.433Z,0.00
2022-09-28T06:44:04.391Z,0.00
2022-09-28T06:45:04.382Z,0.00
2022-09-28T06:46:04.439Z,0.00
2022-09-28T06:47:04.357Z,0.00
2022-09-28T06:48:04.343Z,0.00
2022-09-28T06:49:04.336Z,0.00
2022-09-28T06:50:04.325Z,0.00
2022-09-28T06:51:04.339Z,0.00
2022-09-28T06:52:04.303Z,0.00
2022-09-28T06:53:04.347Z,0.00
2022-09-28T06:54:04.297Z,0.00
2022-09-28T06:55:04.269Z,0.00
2022-09-28T06:56:04.264Z,0.00
2022-09-28T06:57:04.247Z,0.00
2022-09-28T06:58:04.234Z,0.00
2022-09-28T06:59:04.228Z,0.00
2022-09-28T07:00:04.217Z,0.00
2022-09-28T07:01:04.326Z,0.00
2022-09-28T07:02:04.273Z,0.00
2022-09-28T07:03:04.185Z,0.00
2022-09-28T07:04:04.221Z,0.00
2022-09-28T07:05:04.195Z,0.00
2022-09-28T07:06:04.147Z,0.00
2022-09-28T07:07:04.162Z,0.00
2022-09-28T07:08:04.125Z,0.00
2022-09-28T07:09:23.909Z,0.00
2022-09-28T07:10:05.185Z,0.00
2022-09-28T07:11:04.092Z,0.00
2022-09-28T07:12:04.083Z,0.00
2022-09-28T07:13:04.077Z,0.00
2022-09-28T07:14:04.114Z,0.00
2022-09-28T07:15:04.076Z,0.00
2022-09-28T07:16:04.043Z,0.00
2022-09-28T07:17:14.042Z,0.00
2022-09-28T07:18:05.079Z,0.00
2022-09-28T07:19:04.018Z,0.00
2022-09-28T07:20:15.486Z,0.00
2022-09-28T07:21:05.013Z,0.00
2022-09-28T07:22:05.555Z,0.00
2022-09-28T07:23:16.063Z,0.00
2022-09-28T07:24:04.975Z,0.00
2022-09-28T07:25:03.941Z,0.00
2022-09-28T07:26:05.896Z,0.00
2022-09-28T07:27:03.919Z,0.00
2022-09-28T07:28:03.905Z,0.00
2022-09-28T07:29:03.894Z,0.00
2022-09-28T07:30:03.886Z,0.00
2022-09-28T07:31:03.987Z,0.00
2022-09-28T07:32:03.910Z,0.00
2022-09-28T07:33:03.849Z,0.00
2022-09-28T07:34:03.837Z,0.00
2022-09-28T07:35:03.827Z,0.00
2022-09-28T07:36:03.815Z,0.00
2022-09-28T07:37:03.804Z,0.00
2022-09-28T07:38:03.790Z,0.00
2022-09-28T07:39:03.836Z,0.00
2022-09-28T07:40:03.768Z,0.00
2022-09-28T07:41:03.814Z,0.00
2022-09-28T07:42:03.773Z,0.00
2022-09-28T07:43:03.757Z,0.00
2022-09-28T07:44:03.725Z,0.00
2022-09-28T07:45:03.716Z,0.00
2022-09-28T07:46:03.807Z,0.00
2022-09-28T07:47:03.694Z,0.00
2022-09-28T07:48:03.778Z,0.00
2022-09-28T07:49:05.763Z,0.00
2022-09-28T07:50:03.659Z,0.00
2022-09-28T07:51:03.649Z,0.00
2022-09-28T07:52:03.642Z,0.00
2022-09-28T07:53:03.634Z,0.00
2022-09-28T07:54:03.613Z,0.00
2022-09-28T07:55:07.035Z,0.00
2022-09-28T07:56:03.613Z,0.00
2022-09-28T07:57:03.577Z,0.00
2022-09-28T07:58:03.568Z,0.00
2022-09-28T07:59:03.559Z,0.00
2022-09-28T08:00:03.546Z,0.00
2022-09-28T08:01:03.614Z,0.00
2022-09-28T08:02:03.606Z,0.00
2022-09-28T08:03:03.515Z,0.00
2022-09-28T08:04:03.501Z,0.00
2022-09-28T08:05:03.497Z,0.00
2022-09-28T08:06:03.490Z,0.00
2022-09-28T08:07:03.476Z,0.00
2022-09-28T08:08:03.508Z,0.00
2022-09-28T08:09:03.466Z,0.00
2022-09-28T08:10:03.440Z,0.00
2022-09-28T08:11:03.592Z,0.00
2022-09-28T08:12:03.415Z,0.00
2022-09-28T08:13:04.771Z,0.00
2022-09-28T08:14:03.391Z,0.00
2022-09-28T08:15:03.382Z,0.00
2022-09-28T08:16:03.374Z,0.00
2022-09-28T08:17:03.413Z,0.00
2022-09-28T08:18:03.351Z,0.00
2022-09-28T08:19:03.345Z,0.00
2022-09-28T08:20:03.329Z,0.00
2022-09-28T08:21:03.340Z,0.00
2022-09-28T08:22:03.314Z,0.00
2022-09-28T08:23:03.325Z,0.00
2022-09-28T08:24:03.341Z,0.00
2022-09-28T08:25:03.328Z,0.00
2022-09-28T08:26:03.294Z,0.00
2022-09-28T08:27:03.274Z,0.00
2022-09-28T08:28:03.239Z,0.00
2022-09-28T08:29:03.227Z,0.00
2022-09-28T08:30:03.217Z,0.00
2022-09-28T08:31:03.370Z,0.00
2022-09-28T08:32:03.195Z,0.00
2022-09-28T08:33:03.184Z,0.00
2022-09-28T08:34:03.174Z,0.00
2022-09-28T08:35:03.163Z,0.00
2022-09-28T08:36:03.153Z,0.00
2022-09-28T08:37:03.140Z,0.00
2022-09-28T08:38:03.130Z,0.00
2022-09-28T08:39:03.121Z,1.02
2022-09-28T08:40:03.109Z,0.00
2022-09-28T08:41:03.313Z,0.00
2022-09-28T08:42:03.337Z,0.00
2022-09-28T08:43:03.103Z,2.45
2022-09-28T08:44:03.061Z,2.14
2022-09-28T08:45:03.050Z,0.00
2022-09-28T08:46:03.104Z,1.43
2022-09-28T08:47:03.028Z,15.31
2022-09-28T08:48:03.019Z,19.61
2022-09-28T08:49:26.410Z,7.66
2022-09-28T08:50:04.086Z,8.27
2022-09-28T08:51:02.992Z,0.61
2022-09-28T08:52:02.979Z,9.29
2022-09-28T08:53:02.962Z,1.43
2022-09-28T08:54:03.151Z,11.13
2022-09-28T08:55:03.025Z,1.32
2022-09-28T08:56:03.176Z,10.31
2022-09-28T08:57:03.210Z,17.16
2022-09-28T08:58:02.915Z,6.84
2022-09-28T08:59:02.923Z,2.66
2022-09-28T09:00:02.894Z,0.00
2022-09-28T09:01:02.937Z,0.00
2022-09-28T09:02:03.005Z,0.00
2022-09-28T09:03:02.853Z,0.00
2022-09-28T09:04:02.844Z,2.45
2022-09-28T09:05:02.842Z,5.62
2022-09-28T09:06:02.819Z,13.48
2022-09-28T09:07:02.809Z,15.92
2022-09-28T09:08:02.799Z,18.68
2022-09-28T09:09:02.787Z,14.39
2022-09-28T09:10:02.856Z,18.48
2022-09-28T09:11:03.018Z,28.38
2022-09-28T09:12:03.045Z,20.72
2022-09-28T09:13:02.753Z,18.07
2022-09-28T09:14:02.729Z,6.73
2022-09-28T09:15:02.775Z,20.07
2022-09-28T09:16:02.719Z,63.22
2022-09-28T09:17:02.749Z,51.06
2022-09-28T09:18:02.689Z,58.15
2022-09-28T09:19:02.681Z,61.56
2022-09-28T09:20:02.676Z,54.66
2022-09-28T09:21:02.656Z,67.43
2022-09-28T09:22:02.645Z,62.94
2022-09-28T09:23:02.788Z,60.32
2022-09-28T09:24:02.878Z,53.16
2022-09-28T09:25:02.620Z,64.95
2022-09-28T09:26:02.609Z,69.09
2022-09-28T09:27:02.603Z,66.38
2022-09-28T09:28:02.655Z,67.41
2022-09-28T09:29:02.662Z,64.88
2022-09-28T09:30:02.675Z,70.56
2022-09-28T09:31:02.718Z,87.88
2022-09-28T09:32:02.741Z,86.39
2022-09-28T09:33:02.785Z,95.68
2022-09-28T09:34:02.823Z,91.74
2022-09-28T09:35:02.731Z,82.51
2022-09-28T09:36:02.502Z,90.99
2022-09-28T09:37:02.512Z,93.51
2022-09-28T09:38:02.490Z,93.73
2022-09-28T09:39:02.459Z,89.74
2022-09-28T09:40:02.445Z,84.99
2022-09-28T09:41:02.565Z,84.55
2022-09-28T09:42:02.435Z,90.64
2022-09-28T09:43:02.410Z,88.60
2022-09-28T09:44:02.403Z,81.99
2022-09-28T09:45:02.392Z,79.72
2022-09-28T09:46:02.460Z,65.71
2022-09-28T09:47:02.997Z,66.46
2022-09-28T09:48:02.381Z,69.23
2022-09-28T09:49:02.367Z,66.00
2022-09-28T09:50:05.455Z,70.99
2022-09-28T09:51:02.325Z,63.46
2022-09-28T09:52:02.332Z,57.97
2022-09-28T09:53:02.309Z,74.07
2022-09-28T09:54:02.294Z,73.36
2022-09-28T09:55:02.282Z,62.08
2022-09-28T09:56:02.273Z,72.11
2022-09-28T09:57:02.262Z,76.41
2022-09-28T09:58:02.254Z,76.31
2022-09-28T09:59:02.280Z,76.95
2022-09-28T10:00:02.268Z,76.42
2022-09-28T10:01:02.240Z,74.28
2022-09-28T10:02:02.271Z,72.34
2022-09-28T10:03:02.219Z,65.12
2022-09-28T10:04:02.184Z,72.34
2022-09-28T10:05:02.174Z,70.51
2022-09-28T10:06:02.166Z,69.60
2022-09-28T10:07:02.152Z,66.35
2022-09-28T10:08:02.143Z,72.34
2022-09-28T10:09:02.128Z,78.94
2022-09-28T10:10:02.115Z,75.49
2022-09-28T10:11:02.130Z,79.72
2022-09-28T10:12:02.126Z,78.44
2022-09-28T10:13:02.087Z,77.01
2022-09-28T10:14:02.084Z,81.26
2022-09-28T10:15:02.065Z,93.42
2022-09-28T10:16:02.051Z,92.19
2022-09-28T10:17:02.102Z,85.92
2022-09-28T10:18:02.027Z,85.49
2022-09-28T10:19:02.040Z,78.82
2022-09-28T10:20:02.006Z,88.60
2022-09-28T10:21:01.994Z,92.54
2022-09-28T10:22:01.985Z,95.09
2022-09-28T10:23:01.971Z,98.05
2022-09-28T10:24:02.027Z,94.12
2022-09-28T10:25:01.980Z,99.99
2022-09-28T10:26:01.942Z,98.04
2022-09-28T10:27:01.928Z,98.99
2022-09-28T10:28:01.928Z,99.60
2022-09-28T10:29:01.908Z,96.98
2022-09-28T10:30:01.897Z,91.74
2022-09-28T10:31:02.035Z,99.14
2022-09-28T10:32:01.876Z,99.90
2022-09-28T10:33:01.866Z,92.75
2022-09-28T10:34:01.854Z,96.10
2022-09-28T10:35:01.868Z,99.99
2022-09-28T10:36:01.841Z,99.46
2022-09-28T10:37:01.872Z,96.17
2022-09-28T10:38:01.833Z,99.99
2022-09-28T10:39:01.801Z,96.96
2022-09-28T10:40:01.791Z,93.25
2022-09-28T10:41:01.869Z,88.12
2022-09-28T10:42:01.771Z,96.75
2022-09-28T10:43:01.756Z,94.60
2022-09-28T10:44:01.755Z,90.17
2022-09-28T10:45:01.986Z,84.17
2022-09-28T10:46:01.837Z,86.61
2022-09-28T10:47:01.727Z,82.99
2022-09-28T10:48:01.705Z,82.42
2022-09-28T10:49:01.727Z,81.20
2022-09-28T10:50:01.760Z,75.20
2022-09-28T10:51:01.694Z,78.28
2022-09-28T10:52:01.663Z,76.65
2022-09-28T10:53:01.645Z,71.50
2022-09-28T10:54:01.651Z,70.55
2022-09-28T10:55:01.725Z,69.84
2022-09-28T10:56:01.627Z,73.84
2022-09-28T10:57:01.604Z,76.28
2022-09-28T10:58:01.793Z,72.01
2022-09-28T10:59:01.582Z,71.91
2022-09-28T11:00:01.619Z,76.28
2022-09-28T11:01:01.949Z,74.96
2022-09-28T11:02:01.668Z,75.20
2022-09-28T11:03:01.584Z,70.58
2022-09-28T11:04:01.532Z,71.73
2022-09-28T11:05:01.517Z,69.49
2022-09-28T11:06:01.530Z,69.19
2022-09-28T11:07:01.628Z,71.70
2022-09-28T11:08:01.484Z,76.39
2022-09-28T11:09:01.474Z,74.04
2022-09-28T11:10:01.503Z,75.40
2022-09-28T11:11:01.450Z,79.27
2022-09-28T11:12:01.458Z,74.08
2022-09-28T11:13:01.430Z,75.20
2022-09-28T11:14:01.424Z,77.24
2022-09-28T11:15:01.409Z,74.79
2022-09-28T11:16:01.397Z,70.17
2022-09-28T11:17:01.575Z,66.94
2022-09-28T11:18:01.372Z,68.95
2022-09-28T11:19:01.409Z,72.41
2022-09-28T11:20:01.361Z,73.36
2022-09-28T11:21:01.338Z,72.04
2022-09-28T11:22:01.333Z,73.77
2022-09-28T11:23:01.352Z,74.49
2022-09-28T11:24:01.319Z,70.78
2022-09-28T11:25:01.300Z,68.04
2022-09-28T11:26:01.290Z,74.55
2022-09-28T11:27:01.278Z,70.07
2022-09-28T11:28:01.262Z,65.46
2022-09-28T11:29:01.296Z,73.30
2022-09-28T11:30:01.256Z,67.69
2022-09-28T11:31:01.377Z,67.19
2022-09-28T11:32:01.243Z,66.38
2022-09-28T11:33:01.207Z,64.61
2022-09-28T11:34:01.197Z,65.33
2022-09-28T11:35:01.203Z,72.55
2022-09-28T11:36:01.189Z,71.73
2022-09-28T11:37:01.966Z,76.31
2022-09-28T11:38:01.154Z,76.72
2022-09-28T11:39:01.180Z,73.97
2022-09-28T11:40:01.133Z,78.66
2022-09-28T11:41:01.211Z,79.88
2022-09-28T11:42:01.151Z,82.01
2022-09-28T11:43:01.149Z,84.05
2022-09-28T11:44:01.088Z,73.16
2022-09-28T11:45:01.073Z,77.44
2022-09-28T11:46:01.139Z,80.18
2022-09-28T11:47:01.057Z,75.60
2022-09-28T11:48:01.047Z,73.57
2022-09-28T11:49:01.040Z,74.79
2022-09-28T11:50:01.025Z,86.49
2022-09-28T11:51:01.012Z,87.04
2022-09-28T11:52:01.006Z,85.82
2022-09-28T11:53:01.007Z,85.86
2022-09-28T11:54:00.980Z,80.87
2022-09-28T11:55:00.991Z,78.53
2022-09-28T11:56:03.289Z,74.62
2022-09-28T11:57:00.951Z,74.62
2022-09-28T11:58:00.939Z,75.54
2022-09-28T11:59:00.926Z,72.96
2022-09-28T12:00:00.918Z,70.82
2022-09-28T12:01:00.907Z,71.64
2022-09-28T12:02:00.976Z,70.86
2022-09-28T12:03:01.067Z,74.99
2022-09-28T12:04:00.904Z,70.82
2022-09-28T12:05:00.866Z,71.94
2022-09-28T12:06:00.851Z,71.09
2022-09-28T12:07:00.846Z,84.92
2022-09-28T12:08:00.834Z,79.63
2022-09-28T12:09:00.819Z,78.11
2022-09-28T12:10:00.809Z,81.06
2022-09-28T12:11:00.835Z,82.68
2022-09-28T12:12:00.785Z,91.64
2022-09-28T12:13:00.771Z,92.45
2022-09-28T12:14:00.796Z,86.55
2022-09-28T12:15:00.791Z,91.03
2022-09-28T12:16:31.587Z,85.74
2022-09-28T12:17:07.626Z,88.69
2022-09-28T12:18:01.813Z,88.54
2022-09-28T12:20:00.697Z,91.29
2022-09-28T12:21:05.009Z,85.90
2022-09-28T12:22:00.675Z,86.82
2022-09-28T12:23:00.665Z,84.17
2022-09-28T12:24:00.652Z,85.80
2022-09-28T12:25:00.677Z,87.73
2022-09-28T12:26:00.675Z,87.93
2022-09-28T12:27:00.649Z,85.49
2022-09-28T12:28:00.613Z,90.84
2022-09-28T12:29:00.596Z,89.22
2022-09-28T12:30:00.582Z,89.31
2022-09-28T12:31:00.609Z,89.48
2022-09-28T12:32:00.565Z,85.31
2022-09-28T12:33:00.559Z,94.51
2022-09-28T12:34:00.563Z,96.75
2022-09-28T12:35:00.567Z,91.56
2022-09-28T12:36:00.639Z,95.68
2022-09-28T12:37:00.507Z,95.18
2022-09-28T12:38:00.496Z,90.51
2022-09-28T12:39:18.040Z,92.84
2022-09-28T12:40:01.941Z,94.46
2022-09-28T12:41:00.511Z,94.22
2022-09-28T12:42:00.456Z,91.24
2022-09-28T12:43:00.478Z,95.59
2022-09-28T12:44:00.435Z,98.79
2022-09-28T12:45:00.453Z,99.99
2022-09-28T12:46:11.667Z,99.99
2022-09-28T12:47:01.541Z,96.09
2022-09-28T12:48:00.392Z,98.48
2022-09-28T12:51:00.648Z,96.30
2022-09-28T12:52:00.344Z,99.04
2022-09-28T12:53:03.002Z,99.99
2022-09-28T12:54:00.322Z,98.74
2022-09-28T12:55:00.367Z,99.99
2022-09-28T12:56:00.301Z,99.99
2022-09-28T12:57:01.093Z,99.99
2022-09-28T12:58:00.277Z,99.99
2022-09-28T12:59:00.294Z,96.46
2022-09-28T13:00:00.257Z,97.33
2022-09-28T13:01:00.242Z,99.99
2022-09-28T13:02:00.267Z,99.99
2022-09-28T13:03:00.294Z,98.54
2022-09-28T13:04:00.213Z,99.99
2022-09-28T13:05:00.200Z,99.65
2022-09-28T13:06:00.189Z,98.28
2022-09-28T13:07:00.222Z,98.18
2022-09-28T13:08:00.171Z,98.79
2022-09-28T13:09:00.167Z,97.88